Time;durP1;ratioP1;P1;durP2;ratioP2;P2;SDS_P1;SDS_P2;PMS_P1;PMS_P2;Temp;Humidity;BMP_temperature;BMP_pressure;BME280_temperature;BME280_humidity;BME280_pressure;Samples;Min_cycle;Max_cycle;Signal;HPM_P1;HPM_P2
2021/01/26 12:58:11;;;;;;;1.90;0.90;;;6.60;99.90;;;;;;5024688;28;20225;-73
2021/01/26 13:00:37;;;;;;;2.17;1.10;;;6.50;99.90;;;;;;5032820;28;20213;-72
2021/01/26 13:03:04;;;;;;;2.37;1.30;;;6.40;99.90;;;;;;5033670;28;20205;-72
2021/01/26 13:05:31;;;;;;;3.73;1.13;;;6.40;99.90;;;;;;5031310;28;20682;-73
2021/01/26 13:07:58;;;;;;;5.37;1.07;;;6.30;99.90;;;;;;5033406;28;20205;-72
2021/01/26 13:10:24;;;;;;;2.20;1.00;;;6.30;99.90;;;;;;5033093;28;20232;-72
2021/01/26 13:12:51;;;;;;;2.60;0.90;;;6.40;99.90;;;;;;5032397;28;20209;-73
2021/01/26 13:15:21;;;;;;;3.80;1.20;;;6.50;99.90;;;;;;5026856;28;20205;-72
2021/01/26 13:17:47;;;;;;;1.13;0.70;;;6.60;99.90;;;;;;5032753;28;20201;-70
2021/01/26 13:20:15;;;;;;;1.27;0.70;;;6.70;99.90;;;;;;5032540;28;20292;-71
2021/01/26 13:22:42;;;;;;;1.40;0.90;;;6.70;99.90;;;;;;5032901;28;20205;-69
2021/01/26 13:25:10;;;;;;;1.63;0.80;;;6.60;99.90;;;;;;5033113;28;20232;-75
2021/01/26 13:27:37;;;;;;;2.70;1.10;;;6.60;99.90;;;;;;5031940;28;20292;-73
2021/01/26 13:30:05;;;;;;;8.70;1.07;;;6.80;99.90;;;;;;5032934;28;20324;-73
2021/01/26 13:32:32;;;;;;;1.57;0.80;;;6.80;99.90;;;;;;5029499;28;20267;-68
2021/01/26 13:34:59;;;;;;;1.60;1.10;;;6.80;99.90;;;;;;5027798;28;20229;-68
2021/01/26 13:37:25;;;;;;;2.27;1.10;;;6.70;99.90;;;;;;5031890;28;20667;-68
2021/01/26 13:39:51;;;;;;;1.13;0.77;;;6.80;99.90;;;;;;5032747;28;20223;-70
2021/01/26 13:42:17;;;;;;;3.20;1.00;;;6.60;99.90;;;;;;5025753;28;20212;-71
2021/01/26 13:44:47;;;;;;;4.27;1.00;;;6.60;99.90;;;;;;5023206;28;20244;-65
2021/01/26 13:47:14;;;;;;;1.93;0.77;;;6.60;99.90;;;;;;5026148;28;20215;-66
2021/01/26 13:49:41;;;;;;;3.67;0.87;;;6.60;99.90;;;;;;5023116;28;20585;-67
2021/01/26 13:52:08;;;;;;;4.80;1.10;;;6.60;99.90;;;;;;5020816;28;20201;-66
2021/01/26 13:54:34;;;;;;;1.20;0.90;;;6.70;99.90;;;;;;5029814;28;20227;-67
2021/01/26 13:57:00;;;;;;;4.17;0.87;;;6.70;99.90;;;;;;5022131;28;20205;-69
2021/01/26 13:59:26;;;;;;;3.07;1.00;;;6.70;99.90;;;;;;5030207;28;20602;-70
2021/01/26 14:01:53;;;;;;;1.43;0.90;;;6.70;99.90;;;;;;5032399;28;20727;-66
2021/01/26 14:04:19;;;;;;;2.23;0.90;;;6.80;99.90;;;;;;5027452;28;20718;-68
2021/01/26 14:06:46;;;;;;;4.50;1.07;;;6.80;99.90;;;;;;5028509;28;20205;-68
2021/01/26 14:09:15;;;;;;;4.60;0.80;;;6.80;99.90;;;;;;5031766;28;20232;-68
2021/01/26 14:11:43;;;;;;;3.20;1.10;;;6.80;99.90;;;;;;5031565;28;20209;-72
2021/01/26 14:14:10;;;;;;;1.33;0.93;;;6.90;99.90;;;;;;5031799;28;20320;-67
2021/01/26 14:16:37;;;;;;;1.17;1.03;;;7.10;99.90;;;;;;5031072;28;20583;-69
2021/01/26 14:19:04;;;;;;;3.90;1.03;;;7.00;99.90;;;;;;5027258;28;20196;-72
2021/01/26 14:21:30;;;;;;;1.83;0.93;;;6.90;99.90;;;;;;5023203;28;20198;-74
2021/01/26 14:23:57;;;;;;;1.20;0.90;;;6.90;99.90;;;;;;5033841;28;20233;-73
2021/01/26 14:26:24;;;;;;;3.17;1.10;;;6.80;99.90;;;;;;5033527;28;20675;-73
2021/01/26 14:28:50;;;;;;;2.07;1.17;;;6.80;99.90;;;;;;5033730;28;20232;-74
2021/01/26 14:31:16;;;;;;;3.67;0.90;;;6.80;99.90;;;;;;5033554;28;20205;-72
2021/01/26 14:33:42;;;;;;;1.73;1.13;;;6.90;99.90;;;;;;5033193;28;20236;-71
2021/01/26 14:36:09;;;;;;;2.97;1.03;;;6.90;99.90;;;;;;5033429;28;20667;-71
2021/01/26 14:38:35;;;;;;;1.20;0.90;;;7.00;99.90;;;;;;5033532;28;20205;-74
2021/01/26 14:41:03;;;;;;;3.50;1.00;;;7.10;99.90;;;;;;5032523;28;20201;-73
2021/01/26 14:43:30;;;;;;;2.57;1.30;;;7.10;99.90;;;;;;5033002;28;20228;-71
2021/01/26 14:45:57;;;;;;;4.73;1.20;;;7.10;99.90;;;;;;5032924;28;20630;-70
2021/01/26 14:48:24;;;;;;;1.63;1.20;;;7.00;99.90;;;;;;5032913;28;20204;-70
2021/01/26 14:50:50;;;;;;;2.27;1.07;;;7.00;99.90;;;;;;5032734;28;20232;-72
2021/01/26 14:53:17;;;;;;;4.27;1.40;;;7.10;99.90;;;;;;5032709;28;20754;-76
2021/01/26 14:55:43;;;;;;;3.77;1.20;;;7.00;99.90;;;;;;5033081;28;20205;-70
2021/01/26 14:58:11;;;;;;;4.13;1.20;;;7.00;99.90;;;;;;5032744;28;20663;-71
2021/01/26 15:00:37;;;;;;;2.00;1.20;;;7.00;99.90;;;;;;5032923;28;20205;-74
2021/01/26 15:03:04;;;;;;;4.50;1.20;;;6.90;99.90;;;;;;5026061;28;20559;-74
2021/01/26 15:05:30;;;;;;;2.60;1.50;;;6.80;99.90;;;;;;5018179;28;20678;-72
2021/01/26 15:07:57;;;;;;;1.73;1.40;;;6.70;99.90;;;;;;5013275;28;20212;-73
2021/01/26 15:10:25;;;;;;;1.37;1.03;;;6.70;99.90;;;;;;5014539;28;20588;-78
2021/01/26 15:12:51;;;;;;;1.77;1.17;;;6.80;99.90;;;;;;5032879;28;20212;-77
2021/01/26 15:15:20;;;;;;;3.20;1.13;;;6.80;99.90;;;;;;5030182;28;20209;-75
2021/01/26 15:17:46;;;;;;;5.00;1.50;;;6.70;99.90;;;;;;5031445;28;20213;-69
2021/01/26 15:20:15;;;;;;;1.27;1.00;;;6.60;99.90;;;;;;5032037;28;20205;-70
2021/01/26 15:22:41;;;;;;;1.40;1.00;;;6.50;99.90;;;;;;5031811;28;20671;-73
2021/01/26 15:25:08;;;;;;;2.60;1.03;;;6.50;99.90;;;;;;5031420;28;20225;-72
2021/01/26 15:27:36;;;;;;;2.83;1.10;;;6.40;99.90;;;;;;5031351;28;20201;-67
2021/01/26 15:30:03;;;;;;;2.80;1.30;;;6.50;99.90;;;;;;5031980;28;20228;-73
2021/01/26 15:32:30;;;;;;;1.83;1.20;;;6.60;99.90;;;;;;5032208;28;20537;-75
2021/01/26 15:34:57;;;;;;;2.73;1.00;;;6.70;99.90;;;;;;5031606;28;20232;-70
2021/01/26 15:37:23;;;;;;;1.17;0.93;;;6.60;99.90;;;;;;5031913;28;20212;-71
2021/01/26 15:39:50;;;;;;;1.50;1.20;;;6.50;99.90;;;;;;5031806;28;20205;-67
2021/01/26 15:42:17;;;;;;;2.83;1.20;;;6.40;99.90;;;;;;5031713;28;20213;-68
2021/01/26 15:44:44;;;;;;;2.93;1.27;;;6.30;99.90;;;;;;5030943;28;20274;-67
2021/01/26 15:47:11;;;;;;;3.73;1.20;;;6.10;99.90;;;;;;5031524;28;20556;-69
2021/01/26 15:49:38;;;;;;;5.40;1.47;;;6.10;99.90;;;;;;5031816;28;20240;-65
2021/01/26 15:52:04;;;;;;;2.50;1.07;;;6.20;99.90;;;;;;5032277;28;20671;-68
2021/01/26 15:54:31;;;;;;;4.03;1.43;;;6.20;99.90;;;;;;5031977;28;20611;-67
2021/01/26 15:56:57;;;;;;;3.53;1.43;;;6.20;99.90;;;;;;5031870;28;20216;-71
2021/01/26 15:59:23;;;;;;;1.83;1.10;;;6.10;99.90;;;;;;5029433;28;20295;-77
2021/01/26 16:01:49;;;;;;;1.20;1.10;;;6.10;99.90;;;;;;5031949;28;20264;-66
2021/01/26 16:04:17;;;;;;;2.90;1.40;;;6.20;99.90;;;;;;5031903;28;20592;-70
2021/01/26 16:06:44;;;;;;;2.77;1.50;;;6.30;99.90;;;;;;5031804;28;20212;-73
2021/01/26 16:09:11;;;;;;;2.57;1.40;;;6.20;99.90;;;;;;5032089;28;20209;-73
2021/01/26 16:11:37;;;;;;;2.37;1.50;;;6.20;99.90;;;;;;5025568;28;20212;-70
2021/01/26 16:14:03;;;;;;;3.17;1.40;;;6.10;99.90;;;;;;5030852;28;20282;-70
2021/01/26 16:16:30;;;;;;;4.43;1.80;;;6.20;99.90;;;;;;5028912;28;20270;-76
2021/01/26 16:18:56;;;;;;;6.53;1.50;;;6.20;99.90;;;;;;5031047;28;20209;-68
2021/01/26 16:21:23;;;;;;;4.23;1.70;;;6.10;99.90;;;;;;5031574;28;20216;-68
2021/01/26 16:23:50;;;;;;;8.33;1.80;;;6.10;99.90;;;;;;5031667;28;20316;-75
2021/01/26 16:26:17;;;;;;;3.20;1.60;;;6.20;99.90;;;;;;5031399;28;20219;-68
2021/01/26 16:28:44;;;;;;;2.57;1.70;;;6.10;99.90;;;;;;5030627;28;20304;-69
2021/01/26 16:31:10;;;;;;;1.90;1.40;;;6.10;99.90;;;;;;5031278;28;20283;-77
2021/01/26 16:33:37;;;;;;;5.80;1.60;;;6.00;99.90;;;;;;5031654;28;20227;-71
2021/01/26 16:36:04;;;;;;;2.87;1.30;;;5.90;99.90;;;;;;5028834;28;20209;-73
2021/01/26 16:38:31;;;;;;;5.20;1.67;;;5.70;99.90;;;;;;5032257;28;20648;-71
2021/01/26 16:40:58;;;;;;;3.13;1.60;;;5.60;99.90;;;;;;5035190;28;20208;-71
2021/01/26 16:43:25;;;;;;;2.30;1.30;;;5.60;99.90;;;;;;5033973;28;20233;-74
2021/01/26 16:45:53;;;;;;;2.47;1.20;;;5.50;99.90;;;;;;5034542;28;20208;-70
2021/01/26 16:48:19;;;;;;;2.93;1.40;;;5.40;99.90;;;;;;5034760;28;20312;-72
2021/01/26 16:50:46;;;;;;;4.47;1.57;;;5.50;99.90;;;;;;5034954;28;20239;-71
2021/01/26 16:53:14;;;;;;;3.97;1.60;;;5.50;99.90;;;;;;5034676;28;20229;-70
2021/01/26 16:55:41;;;;;;;3.67;1.20;;;5.40;99.90;;;;;;5034091;28;20673;-70
2021/01/26 16:58:08;;;;;;;3.60;1.50;;;5.40;99.90;;;;;;5031724;28;20220;-71
2021/01/26 17:00:35;;;;;;;5.53;1.97;;;5.40;99.90;;;;;;5034557;28;20216;-70
2021/01/26 17:03:02;;;;;;;4.40;1.70;;;5.40;99.90;;;;;;5034779;28;20247;-71
2021/01/26 17:05:29;;;;;;;7.23;1.50;;;5.40;99.90;;;;;;5034586;28;20234;-71
2021/01/26 17:07:55;;;;;;;4.23;1.43;;;5.40;99.90;;;;;;5034135;28;20205;-71
2021/01/26 17:10:22;;;;;;;3.37;1.70;;;5.40;99.90;;;;;;5033976;28;20279;-71
2021/01/26 17:12:48;;;;;;;3.27;1.60;;;5.40;99.90;;;;;;5034442;28;20204;-71
2021/01/26 17:15:16;;;;;;;3.43;1.60;;;5.30;99.90;;;;;;5034049;28;20237;-70
2021/01/26 17:17:42;;;;;;;3.13;1.83;;;5.20;99.90;;;;;;5031061;28;20555;-71
2021/01/26 17:20:13;;;;;;;2.73;1.60;;;5.20;99.90;;;;;;5034106;28;20212;-70
2021/01/26 17:22:39;;;;;;;4.67;1.43;;;5.20;99.90;;;;;;5034369;28;20208;-72
2021/01/26 17:25:06;;;;;;;3.07;1.40;;;5.20;99.90;;;;;;5033695;28;20279;-71
2021/01/26 17:27:33;;;;;;;4.63;1.40;;;5.20;99.90;;;;;;5033815;28;20718;-78
2021/01/26 17:29:59;;;;;;;3.97;1.63;;;5.10;99.90;;;;;;5033652;28;20722;-70
2021/01/26 17:32:27;;;;;;;3.13;1.57;;;5.10;99.90;;;;;;5033561;28;20211;-70
2021/01/26 17:34:53;;;;;;;4.53;2.17;;;5.10;99.90;;;;;;5033620;28;20264;-71
2021/01/26 17:37:20;;;;;;;3.73;1.87;;;5.20;99.90;;;;;;5030650;28;20267;-71
2021/01/26 17:39:46;;;;;;;2.70;1.27;;;5.20;99.90;;;;;;5033719;28;20205;-77
2021/01/26 17:42:13;;;;;;;3.57;1.63;;;5.10;99.90;;;;;;5035004;28;20215;-78
2021/01/26 17:44:40;;;;;;;5.20;1.70;;;5.00;99.90;;;;;;5034089;28;20228;-71
2021/01/26 17:47:06;;;;;;;1.73;1.40;;;5.00;99.90;;;;;;5033453;28;20231;-69
2021/01/26 17:49:33;;;;;;;3.30;1.40;;;4.90;99.90;;;;;;5033310;28;20224;-70
2021/01/26 17:52:00;;;;;;;2.43;1.70;;;4.90;99.90;;;;;;5032929;28;20205;-71
2021/01/26 17:54:26;;;;;;;3.30;1.40;;;4.80;99.90;;;;;;5033437;28;20225;-71
2021/01/26 17:56:52;;;;;;;4.90;1.40;;;4.80;99.90;;;;;;5033841;28;20216;-74
2021/01/26 17:59:18;;;;;;;2.70;1.47;;;4.80;99.90;;;;;;5033247;28;20770;-70
2021/01/26 18:01:45;;;;;;;3.13;1.67;;;4.80;99.90;;;;;;5033918;28;20204;-71
2021/01/26 18:04:12;;;;;;;2.83;1.43;;;4.70;99.90;;;;;;5033574;28;20228;-74
2021/01/26 18:06:39;;;;;;;4.47;1.70;;;4.80;99.90;;;;;;5033052;28;20206;-73
2021/01/26 18:09:06;;;;;;;4.13;1.90;;;4.80;99.90;;;;;;5032810;28;20201;-70
2021/01/26 18:11:32;;;;;;;5.53;2.03;;;4.90;99.90;;;;;;5030294;28;20235;-74
2021/01/26 18:13:59;;;;;;;5.53;1.93;;;4.90;99.90;;;;;;5032657;28;20228;-69
2021/01/26 18:16:26;;;;;;;10.23;1.80;;;4.90;99.90;;;;;;5032925;28;20205;-70
2021/01/26 18:18:52;;;;;;;4.17;1.60;;;4.90;99.90;;;;;;5031960;28;20208;-69
2021/01/26 18:21:21;;;;;;;5.97;1.60;;;4.80;99.90;;;;;;5031555;28;20518;-69
2021/01/26 18:23:48;;;;;;;4.47;1.77;;;4.90;99.90;;;;;;5030219;28;20713;-73
2021/01/26 18:26:14;;;;;;;4.40;1.53;;;4.80;99.90;;;;;;5032361;28;20698;-70
2021/01/26 18:28:40;;;;;;;5.67;1.83;;;4.80;99.90;;;;;;5032460;28;20209;-69
2021/01/26 18:31:07;;;;;;;3.93;1.70;;;4.90;99.90;;;;;;5032153;28;20247;-72
2021/01/26 18:33:34;;;;;;;4.13;1.47;;;5.00;99.90;;;;;;5031702;28;20229;-69
2021/01/26 18:36:00;;;;;;;3.20;1.47;;;4.90;99.90;;;;;;5032958;28;20217;-70
2021/01/26 18:38:26;;;;;;;3.10;1.43;;;4.80;99.90;;;;;;5032632;28;20204;-69
2021/01/26 18:40:53;;;;;;;2.43;1.50;;;4.80;99.90;;;;;;5031389;28;20208;-69
2021/01/26 18:43:21;;;;;;;6.53;1.30;;;4.80;99.90;;;;;;5031980;28;20224;-70
2021/01/26 18:45:47;;;;;;;1.43;1.10;;;4.80;99.90;;;;;;5031842;28;20205;-69
2021/01/26 18:48:13;;;;;;;5.70;1.50;;;4.90;99.90;;;;;;5032185;28;20282;-69
2021/01/26 18:50:41;;;;;;;1.93;1.20;;;4.80;99.90;;;;;;5032916;28;20240;-77
2021/01/26 18:53:08;;;;;;;2.20;1.43;;;4.70;99.90;;;;;;5033005;28;20209;-77
2021/01/26 18:55:34;;;;;;;2.57;1.43;;;4.60;99.90;;;;;;5032633;28;20675;-69
2021/01/26 18:58:01;;;;;;;4.77;1.50;;;4.50;99.90;;;;;;5032519;28;20217;-75
2021/01/26 19:00:28;;;;;;;3.00;1.63;;;4.50;99.90;;;;;;5031981;28;20211;-69
2021/01/26 19:02:56;;;;;;;3.93;1.70;;;4.40;99.90;;;;;;5026552;28;20591;-70
2021/01/26 19:05:24;;;;;;;2.13;1.33;;;4.50;99.90;;;;;;5031545;28;20208;-71
2021/01/26 19:07:51;;;;;;;3.50;1.43;;;4.60;99.90;;;;;;5029797;28;20209;-71
2021/01/26 19:10:19;;;;;;;3.30;1.60;;;4.60;99.90;;;;;;5029455;28;20239;-68
2021/01/26 19:12:46;;;;;;;2.37;1.57;;;4.60;99.90;;;;;;5029402;28;20205;-69
2021/01/26 19:15:17;;;;;;;2.27;1.30;;;4.60;99.90;;;;;;5030123;28;20229;-70
2021/01/26 19:17:44;;;;;;;4.17;1.60;;;4.50;99.90;;;;;;5030002;28;20208;-70
2021/01/26 19:20:12;;;;;;;3.30;1.63;;;4.60;99.90;;;;;;5030131;28;20282;-70
2021/01/26 19:22:39;;;;;;;3.57;2.00;;;4.50;99.90;;;;;;5030206;28;20694;-71
2021/01/26 19:25:06;;;;;;;2.53;1.40;;;4.50;99.90;;;;;;5029264;28;20638;-69
2021/01/26 19:27:33;;;;;;;2.37;1.57;;;4.40;99.90;;;;;;5029160;28;20680;-69
2021/01/26 19:29:59;;;;;;;3.83;1.70;;;4.50;99.90;;;;;;5029839;28;20691;-70
2021/01/26 19:32:26;;;;;;;3.83;1.87;;;4.50;99.90;;;;;;5029396;28;20655;-69
2021/01/26 19:34:52;;;;;;;2.50;1.60;;;4.40;99.90;;;;;;5030041;28;20225;-75
2021/01/26 19:37:18;;;;;;;3.30;1.70;;;4.40;99.90;;;;;;5029976;28;20212;-74
2021/01/26 19:39:45;;;;;;;2.90;1.40;;;4.40;99.90;;;;;;5029727;28;20280;-69
2021/01/26 19:42:11;;;;;;;3.33;1.60;;;4.40;99.90;;;;;;5029491;28;20208;-73
2021/01/26 19:44:38;;;;;;;2.40;1.63;;;4.50;99.90;;;;;;5029337;28;20623;-74
2021/01/26 19:47:05;;;;;;;3.57;1.57;;;4.50;99.90;;;;;;5029271;28;20215;-71
2021/01/26 19:49:32;;;;;;;4.00;2.10;;;4.50;99.90;;;;;;5030374;28;20218;-73
2021/01/26 19:51:59;;;;;;;6.93;1.83;;;4.50;99.90;;;;;;5029866;28;20197;-71
2021/01/26 19:54:25;;;;;;;6.83;1.80;;;4.40;99.90;;;;;;5030127;28;20225;-69
2021/01/26 19:56:51;;;;;;;6.37;2.00;;;4.50;99.90;;;;;;5030679;28;20224;-68
2021/01/26 19:59:17;;;;;;;3.13;1.97;;;4.60;99.90;;;;;;5030101;28;20221;-69
2021/01/26 20:01:44;;;;;;;2.33;1.33;;;4.60;99.90;;;;;;5030032;28;20213;-74
2021/01/26 20:04:10;;;;;;;4.20;1.50;;;4.60;99.90;;;;;;5029586;28;20493;-68
2021/01/26 20:06:37;;;;;;;5.10;1.80;;;4.60;99.90;;;;;;5030501;28;20205;-67
2021/01/26 20:09:05;;;;;;;2.73;1.67;;;4.60;99.90;;;;;;5032823;28;20209;-70
2021/01/26 20:11:31;;;;;;;2.40;1.30;;;4.50;99.90;;;;;;5032496;28;20228;-67
2021/01/26 20:13:57;;;;;;;2.73;1.43;;;4.50;99.90;;;;;;5034153;28;20255;-72
2021/01/26 20:16:23;;;;;;;4.93;1.50;;;4.50;99.90;;;;;;5036550;28;20204;-71
2021/01/26 20:18:50;;;;;;;3.73;1.10;;;4.60;99.90;;;;;;5036509;28;20208;-67
2021/01/26 20:21:16;;;;;;;4.70;1.93;;;4.60;99.90;;;;;;5036564;28;20213;-66
2021/01/26 20:23:43;;;;;;;3.47;1.80;;;4.60;99.90;;;;;;5029850;28;20218;-67
2021/01/26 20:26:09;;;;;;;4.33;1.50;;;4.70;99.90;;;;;;5026305;28;20603;-67
2021/01/26 20:28:36;;;;;;;2.97;1.50;;;4.70;99.90;;;;;;5016779;28;20679;-66
2021/01/26 20:31:03;;;;;;;2.97;1.30;;;4.60;99.90;;;;;;5015794;28;20229;-67
2021/01/26 20:33:29;;;;;;;2.83;1.50;;;4.50;99.90;;;;;;5015854;28;20232;-65
2021/01/26 20:35:56;;;;;;;2.33;1.33;;;4.50;99.90;;;;;;5015866;28;20221;-72
2021/01/26 20:38:23;;;;;;;2.67;1.60;;;4.60;99.90;;;;;;5020369;28;20201;-66
2021/01/26 20:40:52;;;;;;;4.13;1.50;;;4.60;99.90;;;;;;5024601;28;20204;-71
2021/01/26 20:43:18;;;;;;;3.60;1.40;;;4.60;99.90;;;;;;5026100;28;20221;-71
2021/01/26 20:45:46;;;;;;;2.57;1.43;;;4.40;99.90;;;;;;5026415;28;20216;-66
2021/01/26 20:48:13;;;;;;;2.87;1.50;;;4.40;99.90;;;;;;5024686;28;20198;-67
2021/01/26 20:50:39;;;;;;;4.53;1.40;;;4.30;99.90;;;;;;5024935;28;20221;-68
2021/01/26 20:53:07;;;;;;;4.73;1.67;;;4.40;99.90;;;;;;5018186;28;20205;-66
2021/01/26 20:55:33;;;;;;;4.73;1.53;;;4.40;99.90;;;;;;5015776;28;20213;-70
2021/01/26 20:58:00;;;;;;;3.80;1.50;;;4.40;99.90;;;;;;5015564;28;20220;-67
2021/01/26 21:00:29;;;;;;;2.77;1.53;;;4.40;99.90;;;;;;5015990;28;20210;-70
2021/01/26 21:02:55;;;;;;;2.97;1.63;;;4.40;99.90;;;;;;5015888;28;20210;-66
2021/01/26 21:05:23;;;;;;;2.30;1.20;;;4.40;99.90;;;;;;5015738;28;20236;-66
2021/01/26 21:07:49;;;;;;;4.07;1.70;;;4.30;99.90;;;;;;5015158;28;20205;-67
2021/01/26 21:10:17;;;;;;;4.80;1.73;;;4.30;99.90;;;;;;5015422;28;20296;-72
2021/01/26 21:12:44;;;;;;;4.37;1.40;;;4.30;99.90;;;;;;5015622;28;20209;-67
2021/01/26 21:15:15;;;;;;;4.43;1.80;;;4.10;99.90;;;;;;5015008;28;20767;-70
2021/01/26 21:17:41;;;;;;;4.47;1.77;;;4.10;99.90;;;;;;5015040;28;20232;-67
2021/01/26 21:20:08;;;;;;;3.63;1.60;;;4.00;99.90;;;;;;5015205;28;20210;-67
2021/01/26 21:22:35;;;;;;;3.00;1.60;;;4.10;99.90;;;;;;5015173;28;20268;-68
2021/01/26 21:25:01;;;;;;;4.17;1.87;;;4.00;99.90;;;;;;5014477;28;20237;-67
2021/01/26 21:27:27;;;;;;;2.57;1.47;;;4.00;99.90;;;;;;5015113;28;20252;-67
2021/01/26 21:29:54;;;;;;;4.53;1.80;;;3.90;99.90;;;;;;5014985;28;20240;-71
2021/01/26 21:32:21;;;;;;;6.97;1.90;;;3.90;99.90;;;;;;5014879;28;20604;-66
2021/01/26 21:34:47;;;;;;;2.77;1.67;;;3.80;99.90;;;;;;5034267;28;20250;-67
2021/01/26 21:37:13;;;;;;;3.37;1.80;;;3.80;99.90;;;;;;5034782;28;20279;-68
2021/01/26 21:39:40;;;;;;;2.83;1.70;;;3.80;99.90;;;;;;5034847;28;20205;-71
2021/01/26 21:42:07;;;;;;;6.30;2.23;;;3.80;99.90;;;;;;5034620;28;20204;-67
2021/01/26 21:44:33;;;;;;;6.97;2.00;;;3.80;99.90;;;;;;5034389;28;20225;-69
2021/01/26 21:46:59;;;;;;;5.10;1.77;;;3.90;99.90;;;;;;5034250;28;20679;-66
2021/01/26 21:49:27;;;;;;;3.20;1.67;;;4.00;99.90;;;;;;5034450;28;20212;-69
2021/01/26 21:51:53;;;;;;;4.10;2.10;;;4.00;99.90;;;;;;5034512;28;20236;-67
2021/01/26 21:54:19;;;;;;;5.67;2.27;;;4.00;99.90;;;;;;5034315;28;20225;-72
2021/01/26 21:56:46;;;;;;;2.93;1.70;;;4.10;99.90;;;;;;5034131;28;20213;-70
2021/01/26 21:59:12;;;;;;;4.10;2.00;;;4.10;99.90;;;;;;5034171;28;20209;-67
2021/01/26 22:01:38;;;;;;;4.17;2.30;;;4.10;99.90;;;;;;5034497;28;20215;-71
2021/01/26 22:04:05;;;;;;;3.13;1.77;;;4.10;99.90;;;;;;5033892;28;20699;-67
2021/01/26 22:06:32;;;;;;;2.73;1.67;;;4.10;99.90;;;;;;5034191;28;20209;-66
2021/01/26 22:08:58;;;;;;;4.60;2.13;;;4.10;99.90;;;;;;5034249;28;20205;-66
2021/01/26 22:11:24;;;;;;;5.03;2.40;;;4.00;99.90;;;;;;5034230;28;20232;-72
2021/01/26 22:13:51;;;;;;;4.53;2.03;;;4.00;99.90;;;;;;5034055;28;20221;-72
2021/01/26 22:16:19;;;;;;;4.13;2.23;;;4.10;99.90;;;;;;5033810;28;20205;-68
2021/01/26 22:18:45;;;;;;;3.17;1.63;;;4.10;99.90;;;;;;5025437;28;20251;-67
